»·PEaware :: N8289A L52-L88

N8289A :: L52-L88

FLIGHT INFORMATION

Flight Status: Arrived
Operator: Privately registered:
United States
More flights under this callsign
Pilot: Jonathan H. (26324)
Aircraft: PIPER PA-28 CHEROKEE ARCHER
(P28A)
More flights by this aircraft type
Origin: L52 Oceano Co
United States
Destination: L88 New Cuyama
United States
More flights between these airports :: More routes between these airports
Route:
File this flight plan on PilotEdge
Remarks: cat 1
Altitude:
(Current/Filed)
3,000ft
Speed:
(Current/Filed)
90kts
Departed: 25-Sep-19 08:10 AM
Arrived: 25-Sep-19 08:45 AM
Distance/Time
Traveled:
47nm/0:35
Distance/Time
To Go:
Arrived

Flight Plot

Page will automatically refresh every two minutes.


Map Options




Map Legend


Flown Route
Filed Route
Departure Airport
Arrival Airport
Navaid (VOR, NDB)
Fix

Horizontal Profiles

Position Reports

Time Latitude Longitude Heading Altitude Ground
Speed
25-Sep-19 07:57 35.103453 -120.624820 213 17ft 0kts
25-Sep-19 07:58 35.103453 -120.624820 213 17ft 0kts
25-Sep-19 07:59 35.103445 -120.624827 214 17ft 0kts
25-Sep-19 08:00 35.103445 -120.624827 214 17ft 0kts
25-Sep-19 08:01 35.103445 -120.624827 214 17ft 0kts
25-Sep-19 08:02 35.103445 -120.624827 214 17ft 0kts
25-Sep-19 08:03 35.103445 -120.624827 214 17ft 0kts
25-Sep-19 08:04 35.103445 -120.624827 214 17ft 0kts
25-Sep-19 08:05 35.103445 -120.624827 214 17ft 0kts
25-Sep-19 08:06 35.103444 -120.624828 213 17ft 0kts
25-Sep-19 08:07 35.103444 -120.624827 213 17ft 0kts
25-Sep-19 08:08 35.103509 -120.625246 255 17ft 0kts
25-Sep-19 08:09 35.101666 -120.622555 122 17ft 64kts
25-Sep-19 08:10 35.098151 -120.599647 93 861ft 70kts
25-Sep-19 08:11 35.098556 -120.575937 83 1687ft 71kts
25-Sep-19 08:12 35.096363 -120.552268 102 2485ft 70kts
25-Sep-19 08:13 35.091618 -120.526707 101 3094ft 94kts
25-Sep-19 08:14 35.083831 -120.492982 105 3269ft 109kts
25-Sep-19 08:15 35.077753 -120.456156 94 3235ft 113kts
25-Sep-19 08:16 35.067991 -120.419923 122 3156ft 113kts
25-Sep-19 08:17 35.049091 -120.389497 124 3135ft 106kts
25-Sep-19 08:18 35.022056 -120.369603 178 2975ft 109kts
25-Sep-19 08:19 35.002242 -120.360126 53 2854ft 114kts
25-Sep-19 08:20 35.024635 -120.337604 27 3127ft 103kts
25-Sep-19 08:21 35.051792 -120.323719 15 3199ft 110kts
25-Sep-19 08:22 35.079279 -120.306994 31 3211ft 110kts
25-Sep-19 08:23 35.103067 -120.285364 50 3336ft 108kts
25-Sep-19 08:24 35.122091 -120.257327 53 3452ft 107kts
25-Sep-19 08:25 35.139287 -120.227511 67 3557ft 107kts
25-Sep-19 08:26 35.144854 -120.192087 97 3644ft 108kts
25-Sep-19 08:27 35.137705 -120.156062 105 3679ft 110kts
25-Sep-19 08:28 35.128112 -120.120353 110 3690ft 111kts
25-Sep-19 08:29 35.114703 -120.084556 117 3490ft 118kts
25-Sep-19 08:30 35.101544 -120.047621 111 3242ft 120kts
25-Sep-19 08:31 35.087782 -120.011413 122 3052ft 118kts
25-Sep-19 08:32 35.071254 -119.978102 117 3037ft 110kts
25-Sep-19 08:33 35.058391 -119.943294 112 3053ft 112kts
25-Sep-19 08:34 35.047160 -119.908008 114 3141ft 109kts
25-Sep-19 08:35 35.031602 -119.874807 127 3213ft 113kts
25-Sep-19 08:36 35.011935 -119.844258 121 3264ft 115kts
25-Sep-19 08:37 34.997383 -119.808019 111 3177ft 116kts
25-Sep-19 08:38 34.989690 -119.770367 103 3119ft 111kts
25-Sep-19 08:39 34.980135 -119.733746 112 2959ft 113kts
25-Sep-19 08:40 34.960064 -119.705504 127 2956ft 105kts
25-Sep-19 08:41 34.938501 -119.696304 161 3071ft 92kts
25-Sep-19 08:42 34.928090 -119.670126 58 2629ft 81kts
25-Sep-19 08:43 34.938975 -119.683161 296 2187ft 54kts
25-Sep-19 08:44 34.942333 -119.690893 20 2156ft 10kts
25-Sep-19 08:45 34.943290 -119.691117 239 2153ft 0kts
25-Sep-19 08:46 34.943287 -119.691122 238 2153ft 0kts
25-Sep-19 08:47 34.943287 -119.691122 238 2153ft 0kts
25-Sep-19 08:48 34.943287 -119.691122 238 2153ft 0kts
25-Sep-19 08:49 34.943287 -119.691122 238 2153ft 0kts
25-Sep-19 08:50 34.943287 -119.691122 238 2153ft 0kts
25-Sep-19 08:51 34.943287 -119.691122 238 2153ft 0kts

Navigation Log

Ident Type
Flight plan parsing failed, navigation log unavailable